createdAt,value
2023-08-29T00:00:30.772Z,100.00
2023-08-29T00:03:32.782Z,100.00
2023-08-29T00:06:47.750Z,100.00
2023-08-29T00:10:02.812Z,100.00
2023-08-29T00:13:04.900Z,100.00
2023-08-29T00:16:19.780Z,100.00
2023-08-29T00:19:28.402Z,100.00
2023-08-29T00:22:36.776Z,100.00
2023-08-29T00:25:51.764Z,100.00
2023-08-29T00:29:06.744Z,100.00
2023-08-29T00:32:21.771Z,100.00
2023-08-29T00:35:23.595Z,100.00
2023-08-29T00:38:38.929Z,100.00
2023-08-29T00:41:47.750Z,100.00
2023-08-29T00:45:02.770Z,100.00
2023-08-29T00:48:06.939Z,100.00
2023-08-29T00:51:21.787Z,100.00
2023-08-29T00:54:30.841Z,100.00
2023-08-29T00:57:46.064Z,100.00
2023-08-29T01:00:56.770Z,100.00
2023-08-29T01:04:05.456Z,100.00
2023-08-29T01:07:13.755Z,100.00
2023-08-29T01:10:32.750Z,100.00
2023-08-29T01:14:00.776Z,100.00
2023-08-29T01:17:09.024Z,100.00
2023-08-29T01:20:24.815Z,100.00
2023-08-29T01:23:50.808Z,100.00
2023-08-29T01:26:59.820Z,100.00
2023-08-29T01:30:09.069Z,100.00
2023-08-29T01:33:23.782Z,100.00
2023-08-29T01:36:43.411Z,100.00
2023-08-29T01:40:04.789Z,100.00
2023-08-29T01:43:19.823Z,100.00
2023-08-29T01:46:21.779Z,100.00
2023-08-29T01:49:37.816Z,100.00
2023-08-29T01:52:41.004Z,100.00
2023-08-29T01:55:56.799Z,100.00
2023-08-29T01:59:06.808Z,100.00
2023-08-29T02:02:21.821Z,100.00
2023-08-29T02:05:23.850Z,100.00
2023-08-29T02:08:39.830Z,100.00
2023-08-29T02:11:41.791Z,100.00
2023-08-29T02:14:56.789Z,100.00
2023-08-29T02:18:11.845Z,100.00
2023-08-29T02:21:20.391Z,100.00
2023-08-29T02:24:34.812Z,100.00
2023-08-29T02:27:42.814Z,100.00
2023-08-29T02:30:57.823Z,100.00
2023-08-29T02:33:59.660Z,100.00
2023-08-29T02:37:14.802Z,100.00
2023-08-29T02:40:22.834Z,100.00
2023-08-29T02:43:31.340Z,100.00
2023-08-29T02:46:45.853Z,100.00
2023-08-29T02:49:53.819Z,100.00
2023-08-29T02:53:08.821Z,100.00
2023-08-29T02:56:10.709Z,100.00
2023-08-29T02:59:32.841Z,100.00
2023-08-29T03:02:41.531Z,100.00
2023-08-29T03:06:06.847Z,100.00
2023-08-29T03:09:15.381Z,100.00
2023-08-29T03:12:23.849Z,100.00
2023-08-29T03:15:39.812Z,100.00
2023-08-29T03:18:41.965Z,100.00
2023-08-29T03:21:56.855Z,100.00
2023-08-29T03:25:05.854Z,100.00
2023-08-29T03:28:13.825Z,100.00
2023-08-29T03:31:28.839Z,100.00
2023-08-29T03:34:37.357Z,100.00
2023-08-29T03:37:52.816Z,100.00
2023-08-29T03:41:01.357Z,100.00
2023-08-29T03:44:09.843Z,100.00
2023-08-29T03:47:24.852Z,100.00
2023-08-29T03:50:33.406Z,100.00
2023-08-29T03:53:44.856Z,100.00
2023-08-29T03:56:59.838Z,100.00
2023-08-29T04:00:15.468Z,100.00
2023-08-29T04:03:23.953Z,100.00
2023-08-29T04:06:32.329Z,100.00
2023-08-29T04:09:47.823Z,100.00
2023-08-29T04:12:55.837Z,100.00
2023-08-29T04:16:05.157Z,100.00
2023-08-29T04:19:14.135Z,100.00
2023-08-29T04:22:22.529Z,100.00
2023-08-29T04:25:37.876Z,100.00
2023-08-29T04:28:45.833Z,100.00
2023-08-29T04:31:54.352Z,100.00
2023-08-29T04:35:08.835Z,100.00
2023-08-29T04:38:17.437Z,100.00
2023-08-29T04:41:25.900Z,100.00
2023-08-29T04:44:34.517Z,100.00
2023-08-29T04:47:49.888Z,100.00
2023-08-29T04:50:51.724Z,100.00
2023-08-29T04:54:06.848Z,100.00
2023-08-29T04:57:08.726Z,100.00
2023-08-29T05:00:23.862Z,100.00
2023-08-29T05:03:38.905Z,100.00
2023-08-29T05:06:47.397Z,100.00
2023-08-29T05:09:55.871Z,100.00
2023-08-29T05:13:04.640Z,100.00
2023-08-29T05:16:19.926Z,100.00
2023-08-29T05:19:21.820Z,100.00
2023-08-29T05:22:36.860Z,100.00
2023-08-29T05:25:44.866Z,100.00
2023-08-29T05:28:59.868Z,100.00
2023-08-29T05:32:15.893Z,100.00
2023-08-29T05:35:30.884Z,100.00
2023-08-29T05:38:39.890Z,100.00
2023-08-29T05:41:48.540Z,100.00
2023-08-29T05:44:56.901Z,100.00
2023-08-29T05:48:06.163Z,100.00
2023-08-29T05:51:14.895Z,100.00
2023-08-29T05:54:23.946Z,100.00
2023-08-29T05:57:32.073Z,100.00
2023-08-29T06:00:46.966Z,100.00
2023-08-29T06:03:55.445Z,100.00
2023-08-29T06:07:03.901Z,100.00
2023-08-29T06:10:18.930Z,100.00
2023-08-29T06:13:27.721Z,100.00
2023-08-29T06:16:35.910Z,100.00
2023-08-29T06:19:44.476Z,100.00
2023-08-29T06:22:58.879Z,100.00
2023-08-29T06:26:06.884Z,100.00
2023-08-29T06:29:15.439Z,100.00
2023-08-29T06:32:23.892Z,100.00
2023-08-29T06:35:35.982Z,100.00
2023-08-29T06:38:44.893Z,100.00
2023-08-29T06:41:53.614Z,100.00
2023-08-29T06:45:08.894Z,100.00
2023-08-29T06:48:18.012Z,100.00
2023-08-29T06:51:32.888Z,100.00
2023-08-29T06:54:47.927Z,100.00
2023-08-29T06:57:55.905Z,100.00
2023-08-29T07:01:04.800Z,100.00
2023-08-29T07:04:20.693Z,100.00
2023-08-29T07:07:30.961Z,100.00
2023-08-29T07:10:45.890Z,100.00
2023-08-29T07:14:00.937Z,100.00
2023-08-29T07:17:15.931Z,100.00
2023-08-29T07:20:24.584Z,100.00
2023-08-29T07:23:39.924Z,100.00
2023-08-29T07:26:41.805Z,100.00
2023-08-29T07:29:56.901Z,100.00
2023-08-29T07:32:58.909Z,100.00
2023-08-29T07:36:13.932Z,100.00
2023-08-29T07:39:23.437Z,100.00
2023-08-29T07:42:31.908Z,100.00
2023-08-29T07:45:40.577Z,100.00
2023-08-29T07:48:54.904Z,100.00
2023-08-29T07:52:12.803Z,100.00
2023-08-29T07:55:22.218Z,100.00
2023-08-29T07:58:36.919Z,100.00
2023-08-29T08:01:52.972Z,100.00
2023-08-29T08:04:54.855Z,100.00
2023-08-29T08:08:09.915Z,100.00
2023-08-29T08:11:18.530Z,100.00
2023-08-29T08:14:32.933Z,100.00
2023-08-29T08:17:42.902Z,100.00
2023-08-29T08:20:51.587Z,100.00
2023-08-29T08:23:59.949Z,100.00
2023-08-29T08:27:08.585Z,100.00
2023-08-29T08:30:35.957Z,100.00
2023-08-29T08:33:44.671Z,100.00
2023-08-29T08:36:59.914Z,100.00
2023-08-29T08:40:07.923Z,100.00
2023-08-29T08:43:25.905Z,100.00
2023-08-29T08:46:33.940Z,100.00
2023-08-29T08:49:43.281Z,100.00
2023-08-29T08:52:54.954Z,100.00
2023-08-29T08:59:42.942Z,100.00
2023-08-29T09:02:52.727Z,100.00
2023-08-29T09:06:13.542Z,100.00
2023-08-29T09:09:29.950Z,100.00
2023-08-29T09:12:38.977Z,100.00
2023-08-29T09:15:47.950Z,100.00
2023-08-29T09:19:03.959Z,100.00
2023-08-29T09:22:12.551Z,100.00
2023-08-29T09:25:21.966Z,100.00
2023-08-29T09:28:30.817Z,100.00
2023-08-29T09:31:46.029Z,100.00
2023-08-29T09:35:05.955Z,100.00
2023-08-29T09:38:13.962Z,100.00
2023-08-29T09:41:28.932Z,100.00
2023-08-29T09:44:41.936Z,100.00
2023-08-29T09:47:54.066Z,100.00
2023-08-29T09:51:09.954Z,100.00
2023-08-29T09:54:26.957Z,100.00
2023-08-29T09:57:36.560Z,100.00
2023-08-29T10:00:51.973Z,100.00
2023-08-29T10:04:06.976Z,100.00
2023-08-29T10:07:19.965Z,100.00
2023-08-29T10:10:34.990Z,100.00
2023-08-29T10:13:44.941Z,100.00
2023-08-29T10:16:55.008Z,100.00
2023-08-29T10:20:14.986Z,100.00
2023-08-29T10:23:19.306Z,100.00
2023-08-29T10:26:34.976Z,100.00
2023-08-29T10:29:37.776Z,100.00
2023-08-29T10:32:53.996Z,100.00
2023-08-29T10:36:03.325Z,100.00
2023-08-29T10:39:27.152Z,100.00
2023-08-29T10:42:50.055Z,100.00
2023-08-29T10:46:02.130Z,100.00
2023-08-29T10:49:17.968Z,100.00
2023-08-29T10:52:49.955Z,100.00
2023-08-29T10:56:08.007Z,100.00
2023-08-29T10:59:48.967Z,100.00
2023-08-29T11:03:05.058Z,100.00
2023-08-29T11:06:19.973Z,100.00
2023-08-29T11:09:34.986Z,100.00
2023-08-29T11:13:09.976Z,100.00
2023-08-29T11:16:18.496Z,100.00
2023-08-29T11:19:27.996Z,100.00
2023-08-29T11:22:37.111Z,100.00
2023-08-29T11:25:45.974Z,100.00
2023-08-29T11:29:00.997Z,100.00
2023-08-29T11:32:15.997Z,100.00
2023-08-29T11:35:17.985Z,100.00
2023-08-29T11:38:34.061Z,100.00
2023-08-29T11:41:51.788Z,100.00
2023-08-29T11:45:44.761Z,100.00
2023-08-29T11:48:48.109Z,100.00
2023-08-29T11:51:57.007Z,100.00
2023-08-29T11:55:16.032Z,100.00
2023-08-29T11:58:33.976Z,100.00
2023-08-29T12:01:45.043Z,100.00
2023-08-29T12:04:57.919Z,100.00
2023-08-29T12:08:13.028Z,100.00
2023-08-29T12:11:28.004Z,100.00
2023-08-29T12:15:02.127Z,100.00
2023-08-29T12:18:20.656Z,100.00
2023-08-29T12:21:28.989Z,100.00
2023-08-29T12:24:37.652Z,100.00
2023-08-29T12:27:46.020Z,97.37
2023-08-29T12:31:01.102Z,97.53
2023-08-29T12:34:03.088Z,92.30
2023-08-29T12:37:18.995Z,90.93
2023-08-29T12:40:27.762Z,90.43
2023-08-29T12:43:43.062Z,92.29
2023-08-29T12:46:45.118Z,90.52
2023-08-29T12:50:00.045Z,92.41
2023-08-29T12:53:09.025Z,90.97
2023-08-29T12:56:17.621Z,90.98
2023-08-29T12:59:39.039Z,91.79
2023-08-29T13:02:41.047Z,92.88
2023-08-29T13:05:56.054Z,90.96
2023-08-29T13:09:04.735Z,92.49
2023-08-29T13:12:20.021Z,92.13
2023-08-29T13:15:37.232Z,93.54
2023-08-29T13:18:55.036Z,94.22
2023-08-29T13:22:11.017Z,93.15
2023-08-29T13:25:26.037Z,94.17
2023-08-29T13:28:35.028Z,93.28
2023-08-29T13:31:43.563Z,97.00
2023-08-29T13:34:52.040Z,96.14
2023-08-29T13:38:07.201Z,95.45
2023-08-29T13:41:22.037Z,94.42
2023-08-29T13:44:24.025Z,95.05
2023-08-29T13:47:39.043Z,96.19
2023-08-29T13:50:41.007Z,97.16
2023-08-29T13:53:58.186Z,97.30
2023-08-29T13:57:16.045Z,98.86
2023-08-29T14:00:31.032Z,98.77
2023-08-29T14:03:46.302Z,99.79
2023-08-29T14:06:54.949Z,99.12
2023-08-29T14:10:03.075Z,100.00
2023-08-29T14:13:18.040Z,100.00
2023-08-29T14:16:33.040Z,100.00
2023-08-29T14:19:48.053Z,98.96
2023-08-29T14:22:56.614Z,98.72
2023-08-29T14:26:11.042Z,100.00
2023-08-29T14:29:20.054Z,99.31
2023-08-29T14:32:35.154Z,98.42
2023-08-29T14:35:43.786Z,100.00
2023-08-29T14:38:52.060Z,99.38
2023-08-29T14:42:00.891Z,100.00
2023-08-29T14:45:17.057Z,100.00
2023-08-29T14:48:32.040Z,99.75
2023-08-29T14:51:41.077Z,100.00
2023-08-29T14:54:57.057Z,100.00
2023-08-29T14:58:06.375Z,100.00
2023-08-29T15:01:28.197Z,100.00
2023-08-29T15:04:43.067Z,100.00
2023-08-29T15:07:51.061Z,100.00
2023-08-29T15:10:59.646Z,100.00
2023-08-29T15:14:08.065Z,100.00
2023-08-29T15:17:23.123Z,100.00
2023-08-29T15:20:39.065Z,100.00
2023-08-29T15:23:48.252Z,100.00
2023-08-29T15:27:03.074Z,100.00
2023-08-29T15:30:05.828Z,100.00
2023-08-29T15:33:21.073Z,100.00
2023-08-29T15:36:36.084Z,97.86
2023-08-29T15:39:51.044Z,98.53
2023-08-29T15:42:53.073Z,96.00
2023-08-29T15:46:08.199Z,99.55
2023-08-29T15:49:16.747Z,99.86
2023-08-29T15:52:25.148Z,98.98
2023-08-29T15:55:40.120Z,100.00
2023-08-29T15:58:42.506Z,100.00
2023-08-29T16:01:58.098Z,100.00
2023-08-29T16:05:00.295Z,100.00
2023-08-29T16:08:16.113Z,100.00
2023-08-29T16:11:31.077Z,100.00
2023-08-29T16:14:39.128Z,99.76
2023-08-29T16:17:47.833Z,99.40
2023-08-29T16:21:00.084Z,98.01
2023-08-29T16:24:08.816Z,97.73
2023-08-29T16:27:24.156Z,96.68
2023-08-29T16:30:27.448Z,99.97
2023-08-29T16:33:44.113Z,100.00
2023-08-29T16:36:53.158Z,99.76
2023-08-29T16:40:08.132Z,100.00
2023-08-29T16:43:17.130Z,100.00
2023-08-29T16:46:26.318Z,100.00
2023-08-29T16:49:41.087Z,100.00
2023-08-29T16:52:50.108Z,100.00
2023-08-29T16:56:06.112Z,100.00
2023-08-29T16:59:15.164Z,100.00
2023-08-29T17:02:24.688Z,100.00
2023-08-29T17:05:39.320Z,100.00
2023-08-29T17:08:55.292Z,100.00
2023-08-29T17:12:03.897Z,100.00
2023-08-29T17:15:19.099Z,100.00
2023-08-29T17:18:34.131Z,100.00
2023-08-29T17:21:50.095Z,100.00
2023-08-29T17:25:06.416Z,100.00
2023-08-29T17:28:23.117Z,100.00
2023-08-29T17:31:25.181Z,100.00
2023-08-29T17:34:41.130Z,100.00
2023-08-29T17:37:57.105Z,100.00
2023-08-29T17:41:00.386Z,100.00
2023-08-29T17:44:17.450Z,100.00
2023-08-29T17:47:21.071Z,100.00
2023-08-29T17:50:39.150Z,100.00
2023-08-29T17:53:47.897Z,100.00
2023-08-29T17:57:03.154Z,100.00
2023-08-29T18:00:19.922Z,100.00
2023-08-29T18:03:35.429Z,100.00
2023-08-29T18:06:50.310Z,100.00
2023-08-29T18:10:20.115Z,100.00
2023-08-29T18:13:35.117Z,100.00
2023-08-29T18:16:44.149Z,100.00
2023-08-29T18:19:53.159Z,100.00
2023-08-29T18:23:09.130Z,100.00
2023-08-29T18:26:20.424Z,100.00
2023-08-29T18:29:29.270Z,100.00
2023-08-29T18:32:44.185Z,100.00
2023-08-29T18:35:54.480Z,100.00
2023-08-29T18:39:10.150Z,100.00
2023-08-29T18:42:19.122Z,100.00
2023-08-29T18:45:34.416Z,100.00
2023-08-29T18:48:43.120Z,100.00
2023-08-29T18:51:58.127Z,100.00
2023-08-29T18:55:14.630Z,100.00
2023-08-29T18:58:17.189Z,100.00
2023-08-29T19:01:39.544Z,100.00
2023-08-29T19:04:54.582Z,100.00
2023-08-29T19:08:10.911Z,100.00
2023-08-29T19:11:13.300Z,100.00
2023-08-29T19:14:31.204Z,100.00
2023-08-29T19:17:34.272Z,100.00
2023-08-29T19:20:51.574Z,100.00
2023-08-29T19:23:54.568Z,100.00
2023-08-29T19:27:21.635Z,100.00
2023-08-29T19:30:34.647Z,100.00
2023-08-29T19:33:49.603Z,100.00
2023-08-29T19:37:04.181Z,100.00
2023-08-29T19:40:13.050Z,100.00
2023-08-29T19:43:22.159Z,100.00
2023-08-29T19:46:38.249Z,100.00
2023-08-29T19:49:54.177Z,100.00
2023-08-29T19:53:03.606Z,100.00
2023-08-29T19:56:21.658Z,100.00
2023-08-29T19:59:37.569Z,100.00
2023-08-29T20:02:46.397Z,100.00
2023-08-29T20:05:56.191Z,100.00
2023-08-29T20:09:05.222Z,100.00
2023-08-29T20:12:15.445Z,100.00
2023-08-29T20:15:30.480Z,100.00
2023-08-29T20:18:40.392Z,98.35
2023-08-29T20:21:56.194Z,98.17
2023-08-29T20:25:06.010Z,98.56
2023-08-29T20:28:15.577Z,98.21
2023-08-29T20:31:24.173Z,98.57
2023-08-29T20:34:33.292Z,98.28
2023-08-29T20:37:44.243Z,99.76
2023-08-29T20:40:59.388Z,98.80
2023-08-29T20:44:08.176Z,97.48
2023-08-29T20:47:23.173Z,98.24
2023-08-29T20:50:31.907Z,99.79
2023-08-29T20:53:42.202Z,100.00
2023-08-29T20:56:51.046Z,100.00
2023-08-29T21:00:14.211Z,100.00
2023-08-29T21:03:29.296Z,100.00
2023-08-29T21:06:39.805Z,100.00
2023-08-29T21:09:49.185Z,100.00
2023-08-29T21:13:04.176Z,100.00
2023-08-29T21:16:06.060Z,100.00
2023-08-29T21:19:21.176Z,100.00
2023-08-29T21:22:29.740Z,100.00
2023-08-29T21:25:38.182Z,100.00
2023-08-29T21:28:53.169Z,100.00
2023-08-29T21:32:01.732Z,100.00
2023-08-29T21:35:16.194Z,100.00
2023-08-29T21:38:31.161Z,100.00
2023-08-29T21:41:47.210Z,100.00
2023-08-29T21:45:02.171Z,100.00
2023-08-29T21:48:11.372Z,100.00
2023-08-29T21:51:20.237Z,100.00
2023-08-29T21:54:35.184Z,100.00
2023-08-29T21:57:43.213Z,100.00
2023-08-29T22:01:05.241Z,100.00
2023-08-29T22:04:20.177Z,100.00
2023-08-29T22:07:28.194Z,100.00
2023-08-29T22:10:43.161Z,100.00
2023-08-29T22:13:45.144Z,100.00
2023-08-29T22:17:00.197Z,100.00
2023-08-29T22:20:02.056Z,100.00
2023-08-29T22:23:17.200Z,100.00
2023-08-29T22:26:32.197Z,100.00
2023-08-29T22:29:34.077Z,100.00
2023-08-29T22:32:50.229Z,100.00
2023-08-29T22:35:59.187Z,100.00
2023-08-29T22:39:16.306Z,100.00
2023-08-29T22:42:18.532Z,100.00
2023-08-29T22:45:33.206Z,100.00
2023-08-29T22:48:48.193Z,100.00
2023-08-29T22:51:56.209Z,100.00
2023-08-29T22:55:12.199Z,100.00
2023-08-29T22:58:20.215Z,100.00
2023-08-29T23:01:42.233Z,100.00
2023-08-29T23:04:44.110Z,100.00
2023-08-29T23:07:59.263Z,100.00
2023-08-29T23:11:01.245Z,100.00
2023-08-29T23:14:16.188Z,100.00
2023-08-29T23:17:24.820Z,100.00
2023-08-29T23:20:39.194Z,100.00
2023-08-29T23:23:47.764Z,100.00
2023-08-29T23:27:02.218Z,100.00
2023-08-29T23:30:11.377Z,100.00
2023-08-29T23:33:24.099Z,100.00
2023-08-29T23:36:32.218Z,100.00
2023-08-29T23:39:40.760Z,100.00
2023-08-29T23:42:55.244Z,100.00
2023-08-29T23:45:57.059Z,100.00
2023-08-29T23:49:12.256Z,100.00
2023-08-29T23:52:20.205Z,100.00
2023-08-29T23:55:28.841Z,100.00
2023-08-29T23:58:37.219Z,100.00
